createdAt,value
2022-07-29T00:00:10.878Z,74.07
2022-07-29T00:02:44.140Z,74.04
2022-07-29T00:04:57.310Z,73.90
2022-07-29T00:07:10.461Z,73.75
2022-07-29T00:09:24.985Z,74.18
2022-07-29T00:11:38.026Z,73.54
2022-07-29T00:13:51.217Z,74.00
2022-07-29T00:16:05.048Z,73.98
2022-07-29T00:18:18.359Z,73.22
2022-07-29T00:20:31.701Z,73.28
2022-07-29T00:22:46.430Z,72.75
2022-07-29T00:24:59.423Z,72.66
2022-07-29T00:27:12.510Z,73.34
2022-07-29T00:29:34.404Z,73.23
2022-07-29T00:31:45.290Z,73.09
2022-07-29T00:33:59.070Z,72.08
2022-07-29T00:36:12.560Z,71.85
2022-07-29T00:38:26.482Z,72.08
2022-07-29T00:40:39.357Z,73.01
2022-07-29T00:42:57.242Z,73.62
2022-07-29T00:45:11.087Z,73.62
2022-07-29T00:47:24.001Z,73.85
2022-07-29T00:49:36.885Z,74.42
2022-07-29T00:51:50.067Z,74.97
2022-07-29T00:54:03.223Z,74.91
2022-07-29T00:56:16.342Z,75.56
2022-07-29T00:58:30.772Z,76.34
2022-07-29T01:00:45.484Z,77.18
2022-07-29T01:02:58.817Z,77.74
2022-07-29T01:05:14.806Z,78.37
2022-07-29T01:07:28.091Z,78.96
2022-07-29T01:09:46.295Z,79.28
2022-07-29T01:12:01.513Z,79.43
2022-07-29T01:14:15.869Z,79.07
2022-07-29T01:16:40.710Z,79.56
2022-07-29T01:18:58.578Z,79.66
2022-07-29T01:21:32.451Z,79.57
2022-07-29T01:24:04.053Z,79.86
2022-07-29T01:26:37.445Z,80.13
2022-07-29T01:29:10.714Z,80.68
2022-07-29T01:31:31.842Z,80.98
2022-07-29T01:33:52.951Z,81.03
2022-07-29T01:36:10.366Z,81.15
2022-07-29T01:38:27.147Z,81.26
2022-07-29T01:40:47.459Z,81.31
2022-07-29T01:43:04.444Z,81.52
2022-07-29T01:45:21.455Z,81.22
2022-07-29T01:47:41.731Z,80.94
2022-07-29T01:49:58.973Z,81.05
2022-07-29T01:52:19.361Z,81.52
2022-07-29T01:54:39.993Z,81.60
2022-07-29T01:56:55.595Z,81.30
2022-07-29T01:59:11.070Z,80.52
2022-07-29T02:01:26.009Z,79.93
2022-07-29T02:03:40.951Z,79.12
2022-07-29T02:05:56.884Z,78.77
2022-07-29T02:08:12.227Z,78.15
2022-07-29T02:10:29.939Z,77.84
2022-07-29T02:12:50.707Z,78.08
2022-07-29T02:15:08.038Z,78.24
2022-07-29T02:17:30.747Z,78.07
2022-07-29T02:19:46.655Z,78.01
2022-07-29T02:22:03.185Z,77.80
2022-07-29T02:24:18.937Z,77.58
2022-07-29T02:26:33.695Z,77.44
2022-07-29T02:28:47.507Z,77.11
2022-07-29T02:31:05.523Z,77.07
2022-07-29T02:33:21.889Z,77.01
2022-07-29T02:35:35.476Z,77.19
2022-07-29T02:38:10.140Z,77.37
2022-07-29T02:40:23.915Z,77.25
2022-07-29T02:42:40.773Z,77.08
2022-07-29T02:44:54.392Z,77.38
2022-07-29T02:47:15.023Z,77.50
2022-07-29T02:49:39.716Z,77.40
2022-07-29T02:51:54.194Z,77.54
2022-07-29T02:54:11.193Z,77.58
2022-07-29T02:56:28.601Z,77.35
2022-07-29T02:58:47.234Z,77.40
2022-07-29T03:01:01.295Z,77.05
2022-07-29T03:03:17.522Z,76.90
2022-07-29T03:05:31.051Z,76.93
2022-07-29T03:07:44.931Z,77.17
2022-07-29T03:09:59.400Z,76.97
2022-07-29T03:12:14.893Z,77.07
2022-07-29T03:14:28.685Z,77.46
2022-07-29T03:16:42.021Z,77.23
2022-07-29T03:18:55.915Z,77.18
2022-07-29T03:21:09.787Z,77.17
2022-07-29T03:23:28.186Z,77.31
2022-07-29T03:25:48.538Z,77.36
2022-07-29T03:28:02.239Z,77.44
2022-07-29T03:30:18.354Z,77.73
2022-07-29T03:32:35.007Z,77.96
2022-07-29T03:34:48.709Z,78.01
2022-07-29T03:37:01.714Z,78.12
2022-07-29T03:39:17.141Z,78.03
2022-07-29T03:41:31.603Z,78.49
2022-07-29T03:43:49.531Z,78.64
2022-07-29T03:46:04.593Z,78.59
2022-07-29T03:48:20.736Z,78.67
2022-07-29T03:50:35.196Z,78.81
2022-07-29T03:52:48.763Z,79.21
2022-07-29T03:55:02.217Z,79.16
2022-07-29T03:57:18.080Z,79.25
2022-07-29T03:59:31.466Z,79.64
2022-07-29T04:01:46.435Z,79.81
2022-07-29T04:04:00.240Z,80.09
2022-07-29T04:06:13.956Z,80.05
2022-07-29T04:08:27.033Z,80.22
2022-07-29T04:10:39.940Z,80.46
2022-07-29T04:12:53.053Z,80.65
2022-07-29T04:15:06.358Z,80.70
2022-07-29T04:17:19.325Z,80.82
2022-07-29T04:19:32.453Z,81.03
2022-07-29T04:21:47.347Z,81.09
2022-07-29T04:24:00.337Z,81.27
2022-07-29T04:26:13.854Z,81.03
2022-07-29T04:28:26.964Z,81.13
2022-07-29T04:30:41.839Z,81.28
2022-07-29T04:32:55.265Z,81.40
2022-07-29T04:35:08.726Z,81.56
2022-07-29T04:37:21.812Z,81.66
2022-07-29T04:39:34.830Z,81.73
2022-07-29T04:41:47.790Z,81.85
2022-07-29T04:44:02.881Z,81.95
2022-07-29T04:46:16.481Z,82.02
2022-07-29T04:48:29.531Z,82.23
2022-07-29T04:50:46.436Z,82.30
2022-07-29T04:52:59.440Z,82.42
2022-07-29T04:55:13.711Z,82.61
2022-07-29T04:57:26.805Z,82.77
2022-07-29T04:59:39.769Z,82.80
2022-07-29T05:01:52.957Z,82.97
2022-07-29T05:04:06.139Z,83.02
2022-07-29T05:06:19.424Z,83.27
2022-07-29T05:08:32.498Z,83.43
2022-07-29T05:10:45.602Z,83.55
2022-07-29T05:12:58.655Z,83.58
2022-07-29T05:15:13.252Z,83.74
2022-07-29T05:17:26.409Z,83.93
2022-07-29T05:19:40.006Z,84.03
2022-07-29T05:21:53.930Z,84.13
2022-07-29T05:24:07.045Z,84.20
2022-07-29T05:26:20.237Z,84.16
2022-07-29T05:28:33.366Z,84.37
2022-07-29T05:30:46.652Z,84.32
2022-07-29T05:32:59.712Z,84.34
2022-07-29T05:35:14.727Z,84.65
2022-07-29T05:37:28.124Z,85.06
2022-07-29T05:39:48.591Z,85.15
2022-07-29T05:42:02.515Z,84.93
2022-07-29T05:44:15.856Z,85.10
2022-07-29T05:46:29.152Z,85.14
2022-07-29T05:48:42.421Z,85.46
2022-07-29T05:50:56.626Z,85.28
2022-07-29T05:53:19.365Z,85.25
2022-07-29T05:55:33.427Z,85.21
2022-07-29T05:57:47.779Z,85.17
2022-07-29T06:00:00.793Z,85.31
2022-07-29T06:02:13.838Z,85.39
2022-07-29T06:04:26.950Z,85.47
2022-07-29T06:06:40.247Z,85.47
2022-07-29T06:08:53.217Z,85.57
2022-07-29T06:11:06.492Z,85.75
2022-07-29T06:13:19.984Z,85.59
2022-07-29T06:15:33.145Z,85.58
2022-07-29T06:17:59.685Z,85.27
2022-07-29T06:20:16.493Z,85.12
2022-07-29T06:22:29.652Z,85.08
2022-07-29T06:24:46.043Z,85.28
2022-07-29T06:26:59.274Z,85.41
2022-07-29T06:29:12.910Z,85.55
2022-07-29T06:31:25.909Z,85.53
2022-07-29T06:33:38.922Z,85.48
2022-07-29T06:35:54.975Z,85.41
2022-07-29T06:38:31.516Z,85.27
2022-07-29T06:41:01.153Z,85.14
2022-07-29T06:43:14.177Z,85.29
2022-07-29T06:45:27.574Z,85.21
2022-07-29T06:47:41.609Z,85.24
2022-07-29T06:49:55.158Z,85.30
2022-07-29T06:52:08.390Z,85.28
2022-07-29T06:54:21.393Z,85.33
2022-07-29T06:56:39.434Z,85.44
2022-07-29T06:58:53.154Z,85.42
2022-07-29T07:01:09.049Z,85.66
2022-07-29T07:03:22.756Z,85.73
2022-07-29T07:05:36.003Z,85.80
2022-07-29T07:07:49.044Z,85.60
2022-07-29T07:10:02.440Z,85.43
2022-07-29T07:12:15.731Z,85.49
2022-07-29T07:14:30.190Z,85.26
2022-07-29T07:16:43.338Z,85.28
2022-07-29T07:18:56.325Z,85.32
2022-07-29T07:21:09.331Z,85.53
2022-07-29T07:23:22.357Z,85.52
2022-07-29T07:25:35.830Z,85.47
2022-07-29T07:27:49.095Z,85.45
2022-07-29T07:30:02.319Z,85.55
2022-07-29T07:32:15.344Z,85.62
2022-07-29T07:34:29.731Z,85.65
2022-07-29T07:36:42.807Z,85.32
2022-07-29T07:38:55.774Z,85.36
2022-07-29T07:41:08.740Z,85.50
2022-07-29T07:43:21.768Z,85.59
2022-07-29T07:45:36.479Z,85.20
2022-07-29T07:47:49.699Z,85.08
2022-07-29T07:50:02.639Z,84.95
2022-07-29T07:52:15.605Z,85.12
2022-07-29T07:54:28.455Z,85.12
2022-07-29T07:56:41.415Z,85.19
2022-07-29T07:58:54.502Z,85.30
2022-07-29T08:01:07.753Z,85.35
2022-07-29T08:03:21.130Z,85.05
2022-07-29T08:05:34.520Z,85.07
2022-07-29T08:07:48.085Z,85.21
2022-07-29T08:10:01.050Z,85.00
2022-07-29T08:12:14.533Z,85.06
2022-07-29T08:14:27.579Z,85.02
2022-07-29T08:16:40.868Z,85.03
2022-07-29T08:18:54.035Z,85.10
2022-07-29T08:21:07.169Z,84.93
2022-07-29T08:23:21.171Z,84.93
2022-07-29T08:25:34.720Z,84.81
2022-07-29T08:27:51.873Z,84.60
2022-07-29T08:30:04.793Z,84.77
2022-07-29T08:32:36.896Z,84.93
2022-07-29T08:34:48.441Z,85.13
2022-07-29T08:37:01.322Z,85.23
2022-07-29T08:39:14.333Z,85.43
2022-07-29T08:41:27.797Z,85.47
2022-07-29T08:43:40.768Z,85.45
2022-07-29T08:45:55.130Z,85.59
2022-07-29T08:48:08.568Z,85.65
2022-07-29T08:50:23.153Z,85.54
2022-07-29T08:52:39.990Z,85.59
2022-07-29T08:54:53.717Z,85.55
2022-07-29T08:57:07.282Z,85.66
2022-07-29T08:59:23.979Z,85.72
2022-07-29T09:01:42.795Z,85.61
2022-07-29T09:04:03.421Z,85.64
2022-07-29T09:06:21.527Z,85.81
2022-07-29T09:08:35.045Z,85.82
2022-07-29T09:10:48.759Z,85.62
2022-07-29T09:13:01.836Z,85.56
2022-07-29T09:15:15.692Z,85.88
2022-07-29T09:17:46.870Z,85.80
2022-07-29T09:20:16.590Z,85.79
2022-07-29T09:22:41.711Z,86.06
2022-07-29T09:24:56.783Z,85.79
2022-07-29T09:27:12.134Z,85.90
2022-07-29T09:29:26.673Z,86.04
2022-07-29T09:31:43.562Z,86.06
2022-07-29T09:33:59.315Z,85.95
2022-07-29T09:36:13.967Z,86.09
2022-07-29T09:38:26.923Z,86.37
2022-07-29T09:40:39.886Z,86.29
2022-07-29T09:42:53.503Z,86.25
2022-07-29T09:45:06.649Z,86.40
2022-07-29T09:47:20.222Z,86.59
2022-07-29T09:49:33.296Z,86.70
2022-07-29T09:51:46.523Z,86.86
2022-07-29T09:53:59.513Z,86.75
2022-07-29T09:56:12.825Z,86.83
2022-07-29T09:58:26.648Z,87.06
2022-07-29T10:00:49.571Z,87.10
2022-07-29T10:03:07.443Z,87.06
2022-07-29T10:05:36.816Z,86.92
2022-07-29T10:07:57.710Z,86.70
2022-07-29T10:10:11.696Z,86.86
2022-07-29T10:12:24.670Z,86.96
2022-07-29T10:14:38.458Z,86.77
2022-07-29T10:16:51.674Z,86.85
2022-07-29T10:19:05.195Z,86.96
2022-07-29T10:21:35.074Z,87.04
2022-07-29T10:23:49.891Z,86.98
2022-07-29T10:26:03.435Z,86.89
2022-07-29T10:28:16.938Z,86.89
2022-07-29T10:30:31.778Z,86.95
2022-07-29T10:32:58.619Z,86.91
2022-07-29T10:35:23.794Z,86.68
2022-07-29T10:37:48.305Z,86.71
2022-07-29T10:40:30.323Z,86.83
2022-07-29T10:42:47.310Z,86.91
2022-07-29T10:45:01.731Z,86.91
2022-07-29T10:47:23.762Z,86.86
2022-07-29T10:49:36.932Z,87.11
2022-07-29T10:52:06.037Z,87.06
2022-07-29T10:54:19.537Z,87.05
2022-07-29T10:56:35.496Z,87.29
2022-07-29T10:58:52.679Z,87.42
2022-07-29T11:01:37.201Z,87.30
2022-07-29T11:03:57.405Z,87.32
2022-07-29T11:06:10.949Z,87.38
2022-07-29T11:08:29.720Z,87.33
2022-07-29T11:10:42.793Z,87.44
2022-07-29T11:12:57.957Z,87.49
2022-07-29T11:15:19.162Z,87.37
2022-07-29T11:17:47.072Z,87.16
2022-07-29T11:20:45.495Z,87.34
2022-07-29T11:22:55.823Z,87.34
2022-07-29T11:25:42.958Z,87.28
2022-07-29T11:27:56.178Z,87.57
2022-07-29T11:30:14.621Z,87.70
2022-07-29T11:32:29.670Z,87.64
2022-07-29T11:34:43.625Z,87.76
2022-07-29T11:37:29.157Z,87.96
2022-07-29T11:39:44.156Z,88.06
2022-07-29T11:42:28.323Z,88.10
2022-07-29T11:45:08.836Z,87.83
2022-07-29T11:47:40.480Z,88.12
2022-07-29T11:49:54.977Z,88.27
2022-07-29T11:52:14.882Z,88.26
2022-07-29T11:54:57.223Z,88.25
2022-07-29T11:57:11.097Z,88.37
2022-07-29T11:59:32.962Z,88.45
2022-07-29T12:02:18.528Z,88.33
2022-07-29T12:04:34.161Z,88.24
2022-07-29T12:06:47.118Z,88.28
2022-07-29T12:09:02.373Z,88.40
2022-07-29T12:11:24.799Z,88.43
2022-07-29T12:13:45.316Z,88.65
2022-07-29T12:16:02.664Z,88.61
2022-07-29T12:18:24.290Z,88.64
2022-07-29T12:20:37.829Z,88.69
2022-07-29T12:22:51.514Z,88.66
2022-07-29T12:25:32.458Z,88.34
2022-07-29T12:27:43.033Z,88.52
2022-07-29T12:30:05.523Z,88.49
2022-07-29T12:32:19.521Z,88.46
2022-07-29T12:34:34.501Z,88.55
2022-07-29T12:36:47.797Z,88.53
2022-07-29T12:39:01.173Z,88.60
2022-07-29T12:41:14.646Z,88.85
2022-07-29T12:43:28.622Z,88.84
2022-07-29T12:45:41.879Z,88.92
2022-07-29T12:48:01.368Z,88.96
2022-07-29T12:50:23.361Z,89.02
2022-07-29T12:52:40.142Z,89.21
2022-07-29T12:54:55.965Z,89.20
2022-07-29T12:57:09.098Z,89.22
2022-07-29T12:59:33.092Z,89.37
2022-07-29T13:01:47.096Z,89.35
2022-07-29T13:04:02.663Z,89.30
2022-07-29T13:06:35.745Z,89.34
2022-07-29T13:09:09.192Z,89.58
2022-07-29T13:14:06.584Z,89.57
2022-07-29T13:16:21.158Z,89.72
2022-07-29T13:18:39.398Z,89.65
2022-07-29T13:20:52.364Z,89.65
2022-07-29T13:23:05.929Z,89.73
2022-07-29T13:25:18.874Z,89.76
2022-07-29T13:27:34.235Z,89.84
2022-07-29T13:29:47.207Z,89.89
2022-07-29T13:32:00.603Z,89.92
2022-07-29T13:34:13.963Z,89.93
2022-07-29T13:36:27.028Z,90.10
2022-07-29T13:38:39.868Z,90.32
2022-07-29T13:40:52.810Z,90.39
2022-07-29T13:43:05.830Z,90.15
2022-07-29T13:45:18.888Z,90.16
2022-07-29T13:47:33.277Z,90.19
2022-07-29T13:49:46.687Z,90.18
2022-07-29T13:52:00.197Z,90.23
2022-07-29T13:54:13.685Z,90.26
2022-07-29T13:56:26.642Z,90.11
2022-07-29T13:58:40.050Z,90.09
2022-07-29T14:00:53.049Z,90.14
2022-07-29T14:03:06.148Z,89.94
2022-07-29T14:05:19.197Z,90.18
2022-07-29T14:07:32.172Z,90.39
2022-07-29T14:09:45.342Z,90.47
2022-07-29T14:11:58.577Z,90.53
2022-07-29T14:14:12.777Z,90.39
2022-07-29T14:16:25.801Z,90.45
2022-07-29T14:18:38.908Z,90.61
2022-07-29T14:20:52.812Z,90.48
2022-07-29T14:23:05.779Z,90.64
2022-07-29T14:25:19.118Z,90.86
2022-07-29T14:27:37.763Z,90.61
2022-07-29T14:29:51.446Z,90.72
2022-07-29T14:32:04.646Z,90.94
2022-07-29T14:34:17.970Z,90.93
2022-07-29T14:36:31.460Z,90.89
2022-07-29T14:38:44.641Z,90.94
2022-07-29T14:40:57.808Z,90.85
2022-07-29T14:43:10.802Z,90.76
2022-07-29T14:45:23.782Z,90.60
2022-07-29T14:47:36.807Z,90.73
2022-07-29T14:49:49.796Z,90.96
2022-07-29T14:52:02.658Z,91.24
2022-07-29T14:54:15.711Z,91.26
2022-07-29T14:56:37.529Z,91.14
2022-07-29T14:58:51.859Z,91.12
2022-07-29T15:01:05.325Z,91.13
2022-07-29T15:03:23.911Z,90.54
2022-07-29T15:05:37.257Z,90.29
2022-07-29T15:07:50.253Z,90.46
2022-07-29T15:10:03.256Z,90.89
2022-07-29T15:12:16.534Z,90.62
2022-07-29T15:14:29.513Z,90.44
2022-07-29T15:16:46.722Z,90.56
2022-07-29T15:19:01.601Z,90.22
2022-07-29T15:21:14.814Z,90.00
2022-07-29T15:23:27.869Z,89.58
2022-07-29T15:25:40.937Z,89.51
2022-07-29T15:27:56.622Z,89.27
2022-07-29T15:30:31.432Z,89.73
2022-07-29T15:32:46.779Z,90.00
2022-07-29T15:34:59.742Z,90.23
2022-07-29T15:37:13.636Z,90.38
2022-07-29T15:39:26.809Z,90.02
2022-07-29T15:41:39.967Z,89.70
2022-07-29T15:43:53.237Z,89.90
2022-07-29T15:46:22.629Z,89.72
2022-07-29T15:48:35.863Z,89.33
2022-07-29T15:50:49.781Z,89.47
2022-07-29T15:53:02.921Z,89.80
2022-07-29T15:55:16.875Z,89.91
2022-07-29T15:57:30.095Z,89.77
2022-07-29T15:59:43.378Z,89.68
2022-07-29T16:01:56.529Z,88.63
2022-07-29T16:04:09.974Z,88.31
2022-07-29T16:06:23.083Z,88.86
2022-07-29T16:08:36.210Z,88.72
2022-07-29T16:10:49.759Z,88.73
2022-07-29T16:13:02.945Z,88.63
2022-07-29T16:15:16.547Z,89.02
2022-07-29T16:17:29.892Z,89.17
2022-07-29T16:19:43.045Z,88.98
2022-07-29T16:21:59.708Z,88.50
2022-07-29T16:24:14.076Z,88.53
2022-07-29T16:26:27.346Z,88.65
2022-07-29T16:28:40.759Z,88.53
2022-07-29T16:30:54.208Z,88.55
2022-07-29T16:33:08.446Z,88.09
2022-07-29T16:35:21.570Z,88.01
2022-07-29T16:37:36.691Z,88.19
2022-07-29T16:39:49.788Z,88.28
2022-07-29T16:42:05.246Z,88.02
2022-07-29T16:44:18.614Z,87.98
2022-07-29T16:46:31.652Z,88.06
2022-07-29T16:48:45.036Z,88.39
2022-07-29T16:50:58.671Z,88.01
2022-07-29T16:53:11.699Z,87.42
2022-07-29T16:55:24.845Z,86.96
2022-07-29T16:57:37.903Z,86.84
2022-07-29T16:59:52.176Z,86.81
2022-07-29T17:02:05.586Z,87.24
2022-07-29T17:04:18.783Z,87.75
2022-07-29T17:06:32.027Z,87.79
2022-07-29T17:08:45.410Z,88.09
2022-07-29T17:10:59.245Z,87.31
2022-07-29T17:13:12.477Z,87.14
2022-07-29T17:15:25.529Z,86.82
2022-07-29T17:17:54.849Z,86.81
2022-07-29T17:20:09.347Z,86.60
2022-07-29T17:22:22.456Z,86.20
2022-07-29T17:24:35.599Z,86.18
2022-07-29T17:26:48.885Z,86.54
2022-07-29T17:29:02.076Z,86.26
2022-07-29T17:31:15.768Z,85.84
2022-07-29T17:33:29.782Z,85.60
2022-07-29T17:35:59.222Z,85.53
2022-07-29T17:38:12.730Z,84.98
2022-07-29T17:40:25.987Z,84.75
2022-07-29T17:42:39.270Z,83.84
2022-07-29T17:44:52.413Z,83.59
2022-07-29T17:47:06.020Z,83.42
2022-07-29T17:49:20.954Z,83.59
2022-07-29T17:51:34.342Z,82.44
2022-07-29T17:53:47.956Z,82.63
2022-07-29T17:56:01.290Z,82.58
2022-07-29T17:58:14.451Z,82.53
2022-07-29T18:00:27.897Z,81.57
2022-07-29T18:02:41.141Z,81.99
2022-07-29T18:04:54.206Z,80.89
2022-07-29T18:07:07.314Z,81.41
2022-07-29T18:09:23.709Z,81.19
2022-07-29T18:11:37.681Z,80.71
2022-07-29T18:13:52.136Z,80.14
2022-07-29T18:16:05.659Z,80.01
2022-07-29T18:18:19.526Z,80.39
2022-07-29T18:20:32.921Z,80.82
2022-07-29T18:22:45.947Z,80.19
2022-07-29T18:24:58.929Z,79.76
2022-07-29T18:27:12.288Z,80.02
2022-07-29T18:29:25.358Z,79.76
2022-07-29T18:31:38.541Z,79.99
2022-07-29T18:33:51.638Z,78.73
2022-07-29T18:36:10.782Z,78.84
2022-07-29T18:38:25.097Z,78.88
2022-07-29T18:40:41.191Z,77.80
2022-07-29T18:42:54.205Z,77.09
2022-07-29T18:45:11.908Z,77.71
2022-07-29T18:47:32.504Z,77.54
2022-07-29T18:49:45.523Z,77.93
2022-07-29T18:51:59.385Z,76.51
2022-07-29T18:54:12.528Z,77.09
2022-07-29T18:56:25.524Z,77.45
2022-07-29T18:58:39.488Z,77.35
2022-07-29T19:00:52.581Z,77.50
2022-07-29T19:03:06.393Z,77.33
2022-07-29T19:05:19.557Z,76.60
2022-07-29T19:07:32.520Z,77.19
2022-07-29T19:09:49.399Z,77.81
2022-07-29T19:12:03.813Z,76.67
2022-07-29T19:14:16.948Z,75.43
2022-07-29T19:16:30.057Z,75.76
2022-07-29T19:18:44.327Z,76.97
2022-07-29T19:20:57.340Z,76.08
2022-07-29T19:23:10.401Z,75.76
2022-07-29T19:25:24.262Z,75.33
2022-07-29T19:27:37.306Z,74.31
2022-07-29T19:29:50.531Z,74.28
2022-07-29T19:32:03.529Z,75.27
2022-07-29T19:34:16.580Z,75.77
2022-07-29T19:36:29.677Z,75.33
2022-07-29T19:38:42.772Z,74.37
2022-07-29T19:40:55.735Z,73.97
2022-07-29T19:43:50.479Z,73.94
2022-07-29T19:45:42.729Z,75.05
2022-07-29T19:48:01.067Z,74.91
2022-07-29T19:50:16.491Z,75.16
2022-07-29T19:52:29.608Z,75.33
2022-07-29T19:54:42.545Z,76.05
2022-07-29T19:56:55.825Z,75.86
2022-07-29T19:59:08.907Z,76.10
2022-07-29T20:01:21.986Z,76.24
2022-07-29T20:03:35.116Z,76.23
2022-07-29T20:05:48.751Z,76.53
2022-07-29T20:08:01.732Z,76.20
2022-07-29T20:10:17.041Z,75.94
2022-07-29T20:12:30.233Z,76.46
2022-07-29T20:14:43.740Z,76.11
2022-07-29T20:16:56.869Z,75.68
2022-07-29T20:19:17.993Z,75.76
2022-07-29T20:21:35.137Z,75.27
2022-07-29T20:23:48.069Z,74.66
2022-07-29T20:26:01.132Z,75.17
2022-07-29T20:28:14.082Z,75.68
2022-07-29T20:30:27.480Z,75.43
2022-07-29T20:32:40.695Z,74.54
2022-07-29T20:34:53.721Z,74.20
2022-07-29T20:37:06.872Z,73.88
2022-07-29T20:39:19.819Z,74.80
2022-07-29T20:41:33.056Z,74.72
2022-07-29T20:43:46.708Z,74.69
2022-07-29T20:45:59.757Z,75.32
2022-07-29T20:48:14.653Z,76.13
2022-07-29T20:50:28.348Z,76.58
2022-07-29T20:52:42.235Z,76.94
2022-07-29T20:54:55.270Z,75.66
2022-07-29T20:57:08.311Z,75.12
2022-07-29T20:59:21.260Z,74.66
2022-07-29T21:01:34.326Z,74.21
2022-07-29T21:03:47.532Z,74.21
2022-07-29T21:06:00.575Z,74.68
2022-07-29T21:08:14.226Z,74.88
2022-07-29T21:10:27.421Z,74.02
2022-07-29T21:12:40.481Z,74.03
2022-07-29T21:14:53.562Z,73.85
2022-07-29T21:17:08.429Z,73.63
2022-07-29T21:19:39.897Z,73.75
2022-07-29T21:21:52.890Z,73.55
2022-07-29T21:24:05.943Z,73.37
2022-07-29T21:26:19.013Z,72.95
2022-07-29T21:28:39.631Z,72.67
2022-07-29T21:30:52.680Z,73.01
2022-07-29T21:33:06.177Z,73.04
2022-07-29T21:35:35.749Z,72.36
2022-07-29T21:37:52.708Z,72.72
2022-07-29T21:40:05.706Z,72.59
2022-07-29T21:42:18.932Z,71.94
2022-07-29T21:44:31.913Z,71.72
2022-07-29T21:46:44.932Z,71.46
2022-07-29T21:48:58.033Z,70.91
2022-07-29T21:51:11.187Z,71.08
2022-07-29T21:53:26.794Z,72.05
2022-07-29T21:55:40.279Z,73.09
2022-07-29T21:57:53.239Z,73.00
2022-07-29T22:00:06.773Z,72.23
2022-07-29T22:02:25.271Z,72.54
2022-07-29T22:04:38.434Z,72.95
2022-07-29T22:06:51.567Z,73.05
2022-07-29T22:09:04.587Z,73.54
2022-07-29T22:11:17.662Z,74.62
2022-07-29T22:13:33.261Z,74.86
2022-07-29T22:15:50.338Z,75.34
2022-07-29T22:18:03.894Z,75.59
2022-07-29T22:20:17.793Z,75.65
2022-07-29T22:22:31.256Z,75.81
2022-07-29T22:24:44.317Z,75.65
2022-07-29T22:26:57.462Z,75.50
2022-07-29T22:29:10.687Z,75.46
2022-07-29T22:31:23.907Z,75.50
2022-07-29T22:33:36.992Z,75.65
2022-07-29T22:35:50.258Z,75.57
2022-07-29T22:38:03.302Z,75.63
2022-07-29T22:40:18.585Z,76.76
2022-07-29T22:42:31.809Z,75.30
2022-07-29T22:44:44.935Z,75.29
2022-07-29T22:46:58.120Z,75.45
2022-07-29T22:49:11.527Z,75.73
2022-07-29T22:51:24.721Z,75.66
2022-07-29T22:53:37.955Z,76.16
2022-07-29T22:55:51.010Z,75.68
2022-07-29T22:58:03.983Z,75.23
2022-07-29T23:00:18.680Z,75.04
2022-07-29T23:02:31.637Z,74.54
2022-07-29T23:04:44.658Z,73.86
2022-07-29T23:06:58.056Z,74.00
2022-07-29T23:09:13.350Z,73.55
2022-07-29T23:11:26.334Z,73.97
2022-07-29T23:13:41.311Z,74.29
2022-07-29T23:15:54.362Z,73.99
2022-07-29T23:18:07.403Z,74.73
2022-07-29T23:20:20.490Z,74.70
2022-07-29T23:22:33.572Z,74.73
2022-07-29T23:24:46.577Z,75.48
2022-07-29T23:26:59.900Z,75.32
2022-07-29T23:29:13.298Z,75.03
2022-07-29T23:31:26.991Z,75.24
2022-07-29T23:33:39.979Z,74.93
2022-07-29T23:35:52.990Z,75.01
2022-07-29T23:38:05.996Z,75.26
2022-07-29T23:40:19.850Z,75.00
2022-07-29T23:42:33.341Z,75.53
2022-07-29T23:44:46.334Z,75.59
2022-07-29T23:46:59.645Z,74.60
2022-07-29T23:49:12.899Z,74.41
2022-07-29T23:51:26.055Z,74.14
2022-07-29T23:53:53.853Z,73.71
2022-07-29T23:56:07.334Z,73.68
2022-07-29T23:58:20.330Z,73.97
